createdAt,value
2023-05-05T00:01:25.240Z,8.80
2023-05-05T00:03:51.806Z,9.13
2023-05-05T00:06:18.426Z,7.80
2023-05-05T00:08:44.876Z,9.50
2023-05-05T00:11:11.908Z,9.30
2023-05-05T00:13:38.792Z,8.15
2023-05-05T00:16:05.982Z,8.73
2023-05-05T00:18:33.748Z,8.27
2023-05-05T00:21:00.167Z,14.15
2023-05-05T00:23:26.631Z,6.47
2023-05-05T00:25:53.055Z,6.88
2023-05-05T00:28:19.573Z,8.07
2023-05-05T00:30:46.056Z,9.50
2023-05-05T00:33:12.583Z,7.75
2023-05-05T00:35:38.969Z,7.90
2023-05-05T00:38:05.382Z,8.00
2023-05-05T00:40:31.837Z,8.20
2023-05-05T00:42:59.809Z,9.77
2023-05-05T00:45:26.294Z,8.60
2023-05-05T00:47:56.948Z,9.05
2023-05-05T00:50:29.219Z,10.73
2023-05-05T00:53:06.498Z,8.10
2023-05-05T00:55:34.216Z,10.05
2023-05-05T00:58:02.878Z,9.73
2023-05-05T01:00:30.080Z,8.50
2023-05-05T01:02:56.758Z,13.23
2023-05-05T01:05:25.836Z,10.23
2023-05-05T01:08:15.436Z,9.43
2023-05-05T01:10:51.813Z,10.80
2023-05-05T01:13:46.079Z,10.13
2023-05-05T01:16:22.803Z,10.18
2023-05-05T01:19:26.306Z,10.10
2023-05-05T01:22:07.195Z,10.57
2023-05-05T01:24:39.790Z,11.10
2023-05-05T01:27:21.387Z,12.00
2023-05-05T01:30:05.441Z,11.27
2023-05-05T01:32:35.676Z,10.18
2023-05-05T01:35:27.315Z,10.02
2023-05-05T01:38:08.821Z,9.57
2023-05-05T01:40:40.857Z,9.02
2023-05-05T01:43:09.660Z,10.90
2023-05-05T01:45:41.514Z,11.38
2023-05-05T01:48:09.053Z,11.30
2023-05-05T01:50:36.760Z,10.73
2023-05-05T01:53:04.900Z,12.15
2023-05-05T01:55:34.537Z,11.27
2023-05-05T01:58:02.232Z,13.07
2023-05-05T02:00:30.637Z,9.57
2023-05-05T02:02:59.678Z,9.48
2023-05-05T02:05:28.087Z,11.98
2023-05-05T02:07:59.025Z,9.75
2023-05-05T02:10:28.048Z,10.55
2023-05-05T02:12:56.464Z,8.80
2023-05-05T02:15:25.007Z,10.18
2023-05-05T02:17:52.992Z,9.55
2023-05-05T02:20:20.566Z,8.15
2023-05-05T02:22:47.261Z,11.25
2023-05-05T02:25:13.870Z,7.45
2023-05-05T02:27:43.812Z,9.27
2023-05-05T02:30:15.889Z,8.20
2023-05-05T02:32:54.558Z,10.27
2023-05-05T02:35:24.368Z,9.43
2023-05-05T02:37:53.341Z,10.82
2023-05-05T02:40:24.355Z,7.32
2023-05-05T02:42:54.267Z,10.00
2023-05-05T02:45:23.073Z,8.38
2023-05-05T02:47:49.500Z,11.10
2023-05-05T02:50:16.071Z,8.45
2023-05-05T02:52:43.245Z,8.45
2023-05-05T02:55:10.175Z,9.38
2023-05-05T02:57:53.550Z,7.30
2023-05-05T03:00:28.966Z,6.00
2023-05-05T03:03:02.297Z,7.10
2023-05-05T03:05:42.866Z,6.18
2023-05-05T03:08:13.989Z,6.57
2023-05-05T03:10:50.322Z,5.65
2023-05-05T03:13:20.316Z,6.32
2023-05-05T03:15:49.573Z,6.07
2023-05-05T03:18:18.200Z,5.45
2023-05-05T03:20:45.269Z,5.15
2023-05-05T03:23:13.411Z,6.55
2023-05-05T03:25:47.756Z,11.13
2023-05-05T03:28:16.373Z,4.85
2023-05-05T03:30:43.034Z,3.65
2023-05-05T03:33:12.176Z,4.60
2023-05-05T03:35:38.698Z,7.05
2023-05-05T03:38:05.203Z,7.15
2023-05-05T03:40:43.136Z,5.75
2023-05-05T03:43:11.481Z,5.57
2023-05-05T03:45:38.625Z,4.07
2023-05-05T03:48:07.754Z,5.22
2023-05-05T03:50:34.293Z,5.75
2023-05-05T03:53:00.858Z,5.28
2023-05-05T03:55:27.456Z,4.53
2023-05-05T03:57:56.261Z,4.30
2023-05-05T04:00:22.723Z,8.93
2023-05-05T04:02:51.332Z,4.90
2023-05-05T04:05:23.977Z,5.47
2023-05-05T04:07:51.470Z,6.28
2023-05-05T04:10:17.995Z,5.72
2023-05-05T04:12:44.511Z,7.07
2023-05-05T04:15:11.161Z,6.63
2023-05-05T04:17:37.826Z,4.75
2023-05-05T04:20:04.705Z,4.80
2023-05-05T04:22:31.113Z,5.47
2023-05-05T04:24:57.733Z,6.68
2023-05-05T04:27:28.886Z,5.65
2023-05-05T04:29:55.833Z,6.38
2023-05-05T04:32:22.507Z,6.63
2023-05-05T04:34:49.024Z,6.53
2023-05-05T04:37:15.933Z,7.43
2023-05-05T04:39:42.410Z,6.57
2023-05-05T04:42:09.046Z,6.38
2023-05-05T04:44:35.739Z,6.50
2023-05-05T04:47:02.782Z,6.72
2023-05-05T04:49:29.831Z,6.03
2023-05-05T04:51:56.194Z,8.55
2023-05-05T04:54:22.804Z,6.93
2023-05-05T04:56:49.536Z,5.47
2023-05-05T04:59:16.132Z,7.30
2023-05-05T05:01:45.133Z,7.15
2023-05-05T05:04:11.590Z,5.95
2023-05-05T05:06:38.014Z,5.95
2023-05-05T05:09:04.554Z,6.82
2023-05-05T05:11:30.908Z,8.10
2023-05-05T05:13:57.468Z,6.90
2023-05-05T05:16:25.115Z,8.82
2023-05-05T05:18:51.598Z,9.05
2023-05-05T05:21:18.144Z,6.60
2023-05-05T05:23:46.680Z,9.13
2023-05-05T05:26:13.373Z,9.00
2023-05-05T05:28:39.944Z,8.10
2023-05-05T05:31:06.814Z,12.20
2023-05-05T05:33:33.195Z,8.68
2023-05-05T05:35:59.609Z,10.18
2023-05-05T05:38:25.984Z,9.35
2023-05-05T05:40:54.395Z,10.48
2023-05-05T05:43:21.175Z,11.60
2023-05-05T05:45:47.778Z,13.25
2023-05-05T05:48:14.245Z,10.27
2023-05-05T05:50:40.662Z,11.70
2023-05-05T05:53:07.205Z,11.30
2023-05-05T05:55:33.718Z,12.85
2023-05-05T05:58:00.162Z,12.00
2023-05-05T06:00:27.054Z,9.55
2023-05-05T06:02:53.583Z,12.70
2023-05-05T06:05:19.988Z,9.43
2023-05-05T06:07:46.360Z,11.50
2023-05-05T06:10:26.680Z,12.13
2023-05-05T06:12:59.677Z,10.68
2023-05-05T06:15:26.225Z,11.18
2023-05-05T06:17:52.824Z,10.70
2023-05-05T06:20:19.392Z,12.45
2023-05-05T06:22:46.037Z,13.10
2023-05-05T06:25:12.599Z,11.02
2023-05-05T06:27:38.961Z,10.23
2023-05-05T06:30:07.323Z,9.85
2023-05-05T06:32:33.931Z,12.73
2023-05-05T06:35:00.944Z,9.95
2023-05-05T06:37:30.253Z,13.23
2023-05-05T06:39:56.839Z,11.15
2023-05-05T06:42:23.341Z,9.10
2023-05-05T06:44:49.942Z,11.05
2023-05-05T06:47:16.459Z,11.68
2023-05-05T06:49:42.987Z,15.57
2023-05-05T06:52:09.457Z,11.55
2023-05-05T06:54:35.961Z,10.52
2023-05-05T06:57:02.335Z,10.40
2023-05-05T06:59:28.935Z,12.40
2023-05-05T07:01:56.525Z,9.57
2023-05-05T07:04:23.472Z,9.18
2023-05-05T07:06:50.007Z,9.60
2023-05-05T07:09:19.923Z,8.55
2023-05-05T07:11:46.835Z,10.13
2023-05-05T07:14:15.830Z,9.95
2023-05-05T07:16:42.252Z,8.02
2023-05-05T07:19:08.878Z,9.13
2023-05-05T07:21:35.818Z,7.43
2023-05-05T07:24:03.319Z,8.63
2023-05-05T07:26:29.916Z,8.55
2023-05-05T07:28:57.453Z,9.93
2023-05-05T07:31:24.116Z,8.27
2023-05-05T07:33:50.624Z,7.78
2023-05-05T07:36:18.239Z,9.15
2023-05-05T07:38:44.720Z,8.75
2023-05-05T07:41:13.900Z,8.77
2023-05-05T07:43:44.265Z,8.52
2023-05-05T07:46:11.085Z,7.20
2023-05-05T07:48:39.044Z,8.35
2023-05-05T07:51:05.476Z,9.32
2023-05-05T07:53:32.022Z,8.00
2023-05-05T07:55:58.817Z,7.10
2023-05-05T07:58:25.353Z,8.93
2023-05-05T08:00:51.758Z,6.80
2023-05-05T08:03:20.380Z,8.90
2023-05-05T08:05:50.623Z,5.85
2023-05-05T08:08:18.157Z,8.43
2023-05-05T08:10:44.604Z,5.57
2023-05-05T08:13:11.075Z,4.78
2023-05-05T08:15:37.547Z,4.78
2023-05-05T08:18:04.004Z,5.03
2023-05-05T08:20:30.620Z,7.05
2023-05-05T08:22:57.088Z,7.63
2023-05-05T08:25:24.176Z,7.68
2023-05-05T08:27:50.607Z,7.15
2023-05-05T08:30:20.782Z,6.20
2023-05-05T08:32:47.344Z,6.70
2023-05-05T08:35:14.118Z,7.32
2023-05-05T08:37:40.647Z,5.32
2023-05-05T08:40:07.639Z,5.80
2023-05-05T08:42:38.660Z,4.95
2023-05-05T08:45:07.385Z,5.47
2023-05-05T08:47:35.876Z,7.75
2023-05-05T08:50:02.477Z,6.00
2023-05-05T08:52:36.368Z,5.82
2023-05-05T08:55:24.495Z,9.98
2023-05-05T08:57:54.507Z,7.25
2023-05-05T09:00:21.582Z,7.72
2023-05-05T09:02:48.956Z,7.03
2023-05-05T09:05:16.226Z,5.45
2023-05-05T09:07:44.106Z,7.45
2023-05-05T09:10:14.521Z,7.13
2023-05-05T09:12:41.921Z,5.25
2023-05-05T09:15:13.820Z,7.85
2023-05-05T09:17:46.979Z,4.65
2023-05-05T09:20:14.898Z,4.50
2023-05-05T09:22:44.717Z,5.72
2023-05-05T09:25:13.108Z,6.55
2023-05-05T09:27:42.206Z,5.88
2023-05-05T09:30:10.756Z,7.05
2023-05-05T09:32:49.350Z,4.80
2023-05-05T09:35:16.962Z,5.85
2023-05-05T09:37:43.974Z,5.32
2023-05-05T09:40:13.215Z,5.32
2023-05-05T09:42:40.936Z,10.02
2023-05-05T09:45:20.365Z,7.90
2023-05-05T09:47:47.989Z,5.68
2023-05-05T09:50:18.812Z,7.68
2023-05-05T09:52:59.645Z,7.20
2023-05-05T09:55:26.338Z,7.07
2023-05-05T09:57:52.821Z,6.50
2023-05-05T10:00:20.135Z,8.70
2023-05-05T10:02:46.818Z,7.93
2023-05-05T10:05:18.395Z,6.80
2023-05-05T10:10:15.473Z,3.85
2023-05-05T10:12:42.696Z,3.15
2023-05-05T10:15:11.387Z,4.10
2023-05-05T10:18:02.255Z,4.53
2023-05-05T10:20:35.042Z,6.05
2023-05-05T10:23:05.586Z,3.47
2023-05-05T10:25:39.555Z,3.83
2023-05-05T10:28:11.650Z,6.47
2023-05-05T10:30:44.100Z,4.00
2023-05-05T10:33:30.194Z,4.82
2023-05-05T10:36:02.063Z,5.78
2023-05-05T10:38:31.762Z,4.55
2023-05-05T10:41:00.907Z,6.18
2023-05-05T10:43:50.006Z,4.97
2023-05-05T10:46:17.045Z,5.93
2023-05-05T10:48:57.407Z,5.47
2023-05-05T10:51:44.851Z,6.63
2023-05-05T10:54:21.486Z,6.72
2023-05-05T10:56:48.387Z,4.75
2023-05-05T10:59:39.290Z,7.07
2023-05-05T11:02:17.990Z,7.45
2023-05-05T11:04:44.604Z,7.97
2023-05-05T11:07:14.650Z,6.10
2023-05-05T11:10:06.130Z,5.88
2023-05-05T11:12:53.619Z,4.85
2023-05-05T11:15:34.938Z,7.65
2023-05-05T11:18:05.912Z,6.28
2023-05-05T11:20:40.034Z,5.63
2023-05-05T11:23:06.603Z,6.65
2023-05-05T11:25:45.293Z,6.15
2023-05-05T11:28:17.807Z,6.25
2023-05-05T11:30:56.935Z,10.02
2023-05-05T11:33:33.960Z,8.90
2023-05-05T11:36:06.806Z,10.30
2023-05-05T11:38:36.544Z,11.80
2023-05-05T11:41:14.777Z,6.97
2023-05-05T11:43:42.353Z,7.57
2023-05-05T11:46:13.022Z,7.88
2023-05-05T11:48:46.948Z,9.18
2023-05-05T11:51:14.386Z,6.85
2023-05-05T11:53:46.520Z,7.80
2023-05-05T11:56:19.362Z,7.90
2023-05-05T11:58:47.158Z,7.82
2023-05-05T12:01:14.108Z,7.63
2023-05-05T12:03:41.109Z,5.80
2023-05-05T12:06:09.363Z,7.53
2023-05-05T12:08:42.498Z,6.32
2023-05-05T12:11:11.040Z,8.82
2023-05-05T12:13:37.586Z,9.07
2023-05-05T12:16:15.263Z,7.18
2023-05-05T12:18:42.623Z,8.38
2023-05-05T12:21:19.696Z,8.00
2023-05-05T12:23:49.627Z,8.75
2023-05-05T12:26:30.364Z,9.77
2023-05-05T12:29:00.396Z,7.05
2023-05-05T12:31:44.585Z,6.95
2023-05-05T12:34:11.994Z,7.88
2023-05-05T12:36:39.609Z,8.23
2023-05-05T12:39:06.348Z,8.35
2023-05-05T12:41:35.930Z,8.75
2023-05-05T12:44:05.522Z,7.65
2023-05-05T12:46:45.328Z,7.72
2023-05-05T12:49:12.354Z,7.50
2023-05-05T12:51:39.544Z,10.45
2023-05-05T12:54:08.432Z,10.65
2023-05-05T12:56:40.652Z,6.43
2023-05-05T12:59:29.995Z,6.55
2023-05-05T13:01:59.834Z,6.22
2023-05-05T13:04:27.892Z,6.28
2023-05-05T13:07:14.821Z,6.57
2023-05-05T13:09:41.503Z,5.25
2023-05-05T13:12:11.561Z,6.18
2023-05-05T13:14:38.789Z,5.65
2023-05-05T13:17:05.127Z,6.65
2023-05-05T13:19:31.703Z,5.32
2023-05-05T13:21:58.924Z,6.07
2023-05-05T13:24:34.918Z,7.35
2023-05-05T13:27:11.839Z,7.82
2023-05-05T13:29:38.367Z,6.38
2023-05-05T13:32:04.989Z,7.82
2023-05-05T13:34:31.417Z,11.10
2023-05-05T13:36:57.820Z,6.80
2023-05-05T13:39:25.409Z,6.93
2023-05-05T13:41:51.972Z,8.77
2023-05-05T13:44:18.472Z,5.50
2023-05-05T13:46:45.129Z,10.05
2023-05-05T13:49:11.742Z,7.38
2023-05-05T13:51:38.943Z,6.60
2023-05-05T13:54:06.555Z,6.75
2023-05-05T13:56:35.121Z,6.35
2023-05-05T13:59:02.464Z,6.32
2023-05-05T14:01:30.033Z,11.20
2023-05-05T14:03:57.995Z,5.80
2023-05-05T14:06:24.898Z,7.32
2023-05-05T14:08:52.866Z,6.07
2023-05-05T14:11:20.537Z,6.28
2023-05-05T14:13:47.606Z,6.13
2023-05-05T14:16:15.581Z,5.53
2023-05-05T14:18:42.482Z,4.30
2023-05-05T14:21:08.971Z,6.00
2023-05-05T14:23:35.531Z,4.65
2023-05-05T14:26:02.085Z,4.72
2023-05-05T14:28:28.610Z,4.55
2023-05-05T14:30:55.095Z,3.70
2023-05-05T14:33:22.257Z,5.07
2023-05-05T14:35:48.990Z,4.88
2023-05-05T14:38:15.596Z,3.97
2023-05-05T14:40:45.027Z,4.72
2023-05-05T14:43:11.443Z,3.80
2023-05-05T14:45:37.986Z,2.85
2023-05-05T14:48:04.485Z,2.65
2023-05-05T14:50:30.962Z,4.03
2023-05-05T14:52:57.401Z,4.53
2023-05-05T14:55:25.009Z,3.30
2023-05-05T14:57:51.909Z,2.92
2023-05-05T15:00:18.668Z,3.47
2023-05-05T15:02:45.158Z,2.60
2023-05-05T15:05:11.792Z,2.80
2023-05-05T15:07:38.392Z,2.58
2023-05-05T15:10:05.344Z,3.10
2023-05-05T15:12:35.196Z,1.95
2023-05-05T15:15:02.718Z,2.92
2023-05-05T15:17:30.775Z,3.08
2023-05-05T15:19:57.495Z,1.85
2023-05-05T15:22:24.171Z,1.75
2023-05-05T15:24:50.873Z,2.67
2023-05-05T15:27:18.279Z,2.92
2023-05-05T15:29:45.002Z,5.15
2023-05-05T15:32:11.568Z,3.17
2023-05-05T15:34:38.131Z,2.22
2023-05-05T15:37:04.720Z,1.60
2023-05-05T15:39:33.776Z,3.30
2023-05-05T15:42:03.615Z,2.33
2023-05-05T15:44:30.487Z,1.80
2023-05-05T15:46:57.170Z,3.45
2023-05-05T15:49:23.664Z,3.83
2023-05-05T15:51:50.260Z,2.92
2023-05-05T15:54:17.115Z,2.95
2023-05-05T15:56:43.564Z,3.40
2023-05-05T15:59:12.654Z,3.00
2023-05-05T16:01:39.178Z,3.90
2023-05-05T16:04:05.669Z,3.72
2023-05-05T16:06:32.285Z,4.28
2023-05-05T16:08:58.783Z,3.25
2023-05-05T16:11:26.321Z,4.40
2023-05-05T16:13:53.135Z,4.15
2023-05-05T16:16:19.635Z,2.80
2023-05-05T16:18:46.327Z,2.65
2023-05-05T16:21:12.777Z,2.80
2023-05-05T16:23:39.287Z,3.25
2023-05-05T16:26:05.858Z,3.83
2023-05-05T16:28:34.124Z,4.40
2023-05-05T16:31:02.224Z,2.50
2023-05-05T16:33:29.220Z,3.67
2023-05-05T16:35:58.506Z,3.40
2023-05-05T16:38:24.946Z,3.85
2023-05-05T16:40:51.580Z,5.50
2023-05-05T16:43:20.661Z,3.72
2023-05-05T16:45:47.211Z,4.75
2023-05-05T16:48:14.661Z,5.63
2023-05-05T16:50:41.447Z,3.03
2023-05-05T16:53:08.933Z,3.42
2023-05-05T16:55:35.632Z,4.93
2023-05-05T16:58:02.090Z,4.80
2023-05-05T17:00:29.813Z,4.32
2023-05-05T17:02:56.783Z,7.35
2023-05-05T17:05:23.371Z,6.88
2023-05-05T17:07:49.932Z,3.78
2023-05-05T17:10:16.595Z,5.03
2023-05-05T17:12:43.026Z,4.82
2023-05-05T17:15:09.994Z,3.97
2023-05-05T17:17:36.689Z,4.82
2023-05-05T17:20:04.780Z,5.63
2023-05-05T17:22:31.983Z,6.22
2023-05-05T17:24:58.456Z,4.95
2023-05-05T17:27:24.920Z,6.88
2023-05-05T17:29:51.828Z,5.63
2023-05-05T17:32:18.217Z,5.07
2023-05-05T17:34:44.592Z,4.90
2023-05-05T17:37:10.990Z,5.07
2023-05-05T17:39:37.414Z,5.35
2023-05-05T17:42:03.990Z,6.20
2023-05-05T17:44:31.519Z,5.70
2023-05-05T17:46:58.351Z,6.05
2023-05-05T17:49:25.354Z,5.38
2023-05-05T17:51:52.032Z,5.43
2023-05-05T17:54:21.178Z,5.97
2023-05-05T17:56:47.591Z,6.82
2023-05-05T17:59:13.973Z,6.32
2023-05-05T18:01:45.071Z,7.03
2023-05-05T18:04:11.569Z,5.28
2023-05-05T18:06:38.214Z,5.30
2023-05-05T18:09:04.776Z,5.78
2023-05-05T18:11:31.279Z,4.72
2023-05-05T18:13:57.935Z,4.85
2023-05-05T18:16:24.405Z,4.35
2023-05-05T18:18:53.803Z,3.58
2023-05-05T18:21:20.338Z,3.75
2023-05-05T18:23:46.722Z,4.93
2023-05-05T18:26:13.185Z,6.22
2023-05-05T18:28:40.575Z,5.22
2023-05-05T18:31:07.328Z,4.82
2023-05-05T18:33:33.771Z,4.68
2023-05-05T18:36:01.142Z,4.10
2023-05-05T18:38:27.666Z,3.95
2023-05-05T18:40:54.144Z,3.80
2023-05-05T18:43:20.806Z,3.60
2023-05-05T18:45:47.252Z,4.72
2023-05-05T18:48:16.780Z,3.38
2023-05-05T18:50:43.364Z,2.70
2023-05-05T18:53:10.779Z,3.80
2023-05-05T18:55:37.308Z,3.38
2023-05-05T18:58:03.666Z,4.43
2023-05-05T19:00:30.138Z,5.57
2023-05-05T19:02:56.899Z,3.47
2023-05-05T19:05:23.530Z,3.65
2023-05-05T19:07:49.957Z,4.55
2023-05-05T19:10:16.392Z,5.22
2023-05-05T19:12:42.852Z,3.78
2023-05-05T19:15:13.810Z,4.30
2023-05-05T19:17:40.278Z,4.13
2023-05-05T19:20:07.561Z,3.47
2023-05-05T19:22:34.070Z,3.40
2023-05-05T19:25:02.678Z,5.15
2023-05-05T19:27:29.333Z,3.78
2023-05-05T19:29:55.896Z,3.83
2023-05-05T19:32:22.480Z,3.35
2023-05-05T19:34:49.109Z,3.20
2023-05-05T19:37:15.682Z,4.03
2023-05-05T19:39:44.333Z,3.97
2023-05-05T19:42:11.159Z,4.60
2023-05-05T19:44:37.566Z,18.52
2023-05-05T19:47:04.484Z,6.43
2023-05-05T19:49:30.870Z,4.68
2023-05-05T19:51:58.751Z,5.07
2023-05-05T19:54:25.654Z,7.90
2023-05-05T19:56:52.208Z,5.03
2023-05-05T19:59:18.577Z,6.00
2023-05-05T20:01:45.182Z,4.00
2023-05-05T20:04:11.764Z,4.45
2023-05-05T20:06:38.277Z,4.60
2023-05-05T20:09:04.839Z,4.53
2023-05-05T20:11:31.487Z,4.72
2023-05-05T20:14:01.424Z,3.50
2023-05-05T20:16:27.859Z,4.35
2023-05-05T20:18:54.578Z,3.28
2023-05-05T20:21:21.237Z,3.17
2023-05-05T20:23:47.858Z,3.95
2023-05-05T20:26:14.521Z,4.45
2023-05-05T20:28:44.820Z,5.45
2023-05-05T20:31:12.080Z,4.88
2023-05-05T20:33:38.513Z,4.28
2023-05-05T20:36:05.369Z,3.65
2023-05-05T20:38:31.765Z,6.78
2023-05-05T20:40:58.147Z,4.15
2023-05-05T20:43:25.480Z,3.65
2023-05-05T20:45:52.069Z,4.57
2023-05-05T20:48:18.860Z,6.53
2023-05-05T20:50:45.688Z,5.97
2023-05-05T20:53:16.031Z,5.55
2023-05-05T20:55:42.619Z,5.55
2023-05-05T20:58:11.622Z,4.38
2023-05-05T21:00:38.212Z,7.20
2023-05-05T21:03:04.919Z,4.53
2023-05-05T21:05:31.691Z,4.95
2023-05-05T21:08:01.175Z,5.95
2023-05-05T21:10:29.099Z,5.65
2023-05-05T21:12:55.821Z,4.78
2023-05-05T21:15:22.655Z,4.78
2023-05-05T21:17:49.086Z,5.72
2023-05-05T21:20:16.585Z,5.60
2023-05-05T21:22:43.126Z,5.55
2023-05-05T21:25:20.791Z,6.80
2023-05-05T21:27:48.341Z,5.00
2023-05-05T21:30:15.399Z,6.07
2023-05-05T21:32:42.587Z,5.00
2023-05-05T21:35:09.335Z,5.95
2023-05-05T21:37:39.354Z,5.55
2023-05-05T21:40:09.504Z,6.03
2023-05-05T21:42:36.200Z,4.57
2023-05-05T21:45:02.712Z,6.15
2023-05-05T21:47:29.191Z,7.03
2023-05-05T21:49:55.605Z,6.57
2023-05-05T21:52:21.943Z,5.53
2023-05-05T21:54:48.387Z,6.97
2023-05-05T21:57:14.882Z,6.03
2023-05-05T21:59:41.355Z,6.00
2023-05-05T22:02:07.785Z,5.95
2023-05-05T22:04:34.183Z,8.38
2023-05-05T22:07:00.841Z,7.70
2023-05-05T22:09:29.011Z,5.15
2023-05-05T22:11:55.492Z,7.55
2023-05-05T22:14:21.989Z,6.03
2023-05-05T22:16:48.499Z,9.07
2023-05-05T22:19:14.916Z,6.93
2023-05-05T22:21:41.372Z,9.32
2023-05-05T22:24:07.889Z,7.05
2023-05-05T22:26:34.275Z,8.55
2023-05-05T22:29:03.057Z,6.97
2023-05-05T22:31:30.607Z,5.65
2023-05-05T22:33:57.352Z,6.90
2023-05-05T22:36:27.521Z,8.00
2023-05-05T22:38:54.176Z,6.90
2023-05-05T22:41:21.043Z,7.05
2023-05-05T22:43:49.073Z,6.35
2023-05-05T22:46:17.449Z,8.40
2023-05-05T22:48:43.946Z,7.65
2023-05-05T22:51:11.276Z,8.30
2023-05-05T22:53:38.593Z,8.48
2023-05-05T22:56:05.410Z,7.10
2023-05-05T22:58:31.853Z,8.50
2023-05-05T23:00:58.313Z,7.63
2023-05-05T23:03:24.800Z,8.93
2023-05-05T23:05:51.188Z,8.20
2023-05-05T23:08:17.598Z,8.30
2023-05-05T23:10:44.155Z,9.63
2023-05-05T23:13:10.786Z,10.77
2023-05-05T23:15:43.540Z,11.02
2023-05-05T23:18:09.922Z,13.00
2023-05-05T23:20:36.449Z,8.18
2023-05-05T23:23:04.582Z,8.60
2023-05-05T23:25:31.033Z,9.90
2023-05-05T23:27:57.421Z,10.02
2023-05-05T23:30:23.856Z,8.60
2023-05-05T23:32:50.575Z,9.30
2023-05-05T23:35:20.204Z,11.27
2023-05-05T23:37:46.736Z,9.77
2023-05-05T23:40:16.117Z,9.88
2023-05-05T23:42:42.494Z,10.57
2023-05-05T23:45:09.700Z,9.30
2023-05-05T23:47:36.491Z,9.57
2023-05-05T23:50:03.573Z,9.90
2023-05-05T23:52:33.073Z,8.82
2023-05-05T23:54:59.560Z,9.00
2023-05-05T23:57:28.702Z,7.85
